EHAM Airport Information

Runway Information
Runway 04 Length 6608 ft width 148 ft
Elevation 0 ft Threshold 0 ft Heading 41
Runway 22 Length 6608 ft Width 148 ft
Elevation 0 ft Threshold 0 ft Heading 221
Runway 06 Length 11483 ft width 148 ft
Elevation 0 ft Threshold 820 ft Heading 58
Runway 24 Length 11483 ft Width 148 ft
Elevation 0 ft Threshold 0 ft Heading 238
Runway 09 Length 11329 ft width 148 ft
Elevation 0 ft Threshold 294 ft Heading 87
Runway 27 Length 11329 ft Width 148 ft
Elevation 0 ft Threshold 0 ft Heading 267
Runway 18C Length 10826 ft width 148 ft
Elevation 0 ft Threshold 0 ft Heading 183
Runway 36C Length 10826 ft Width 148 ft
Elevation 0 ft Threshold 1476 ft Heading 3
Runway 18L Length 11155 ft width 148 ft
Elevation 0 ft Threshold 1887 ft Heading 183
Runway 36R Length 11155 ft Width 148 ft
Elevation 0 ft Threshold 0 ft Heading 3
Runway 18R Length 12467 ft width 198 ft
Elevation 0 ft Threshold 886 ft Heading 183
Runway 36L Length 12467 ft Width 198 ft
Elevation 0 ft Threshold 0 ft Heading 3
Airport Frequencies
Type APP Name APP/DEP Frequency 119.05 MHZ
Type ARR Name ARR Frequency 118.4 MHZ
Type ATIS Name ATIS Frequency 108.4 MHZ
Type CLD Name CLNC DEL Frequency 121.975 MHZ
Type GND Name GND Frequency 121.7 MHZ
Type TWR Name TWR Frequency 119.225 MHZ
Airport Navaids
Type VOR-DME Name Schiphol Frequency 108400 KHZ
Type VOR-DME Name Spijkerboor Frequency 113300 KHZ
Airport Weather Information & NOTAM
ADDS - METARS form results

(0053 UTC 21 September 2019)
Data provider http://aviationweather.gov/metar/data/
 
METAR text: EHAM 210025Z 09007KT CAVOK 11/07 Q1023 NOSIG
Conditions at: EHAM (AMSTERDAM/SCHIPH, NL) observed 0025 UTC 21 September 2019
Temperature: 11.0°C (52°F)
Dewpoint: 7.0°C (45°F) [RH = 76%]
Pressure (altimeter): 30.21 inches Hg (1023.0 mb)
Winds: from the E (90 degrees) at 8 MPH (7 knots; 3.6 m/s)
Visibility: 6 or more miles (10+ km)
Ceiling: ceiling and visibility are OK
Clouds: unknown
Weather: no significant weather observed at this time

METAR text: EHAM 202355Z 08006KT CAVOK 11/08 Q1023 NOSIG
Conditions at: EHAM (AMSTERDAM/SCHIPH, NL) observed 2355 UTC 20 September 2019
Temperature: 11.0°C (52°F)
Dewpoint: 8.0°C (46°F) [RH = 82%]
Pressure (altimeter): 30.21 inches Hg (1023.0 mb)
Winds: from the E (80 degrees) at 7 MPH (6 knots; 3.1 m/s)
Visibility: 6 or more miles (10+ km)
Ceiling: ceiling and visibility are OK
Clouds: unknown
Weather: no significant weather observed at this time

Forecast for: EHAM (AMSTERDAM/SCHIPH, NL)
Text: TAF EHAM 202248Z 2100/2206 11008KT CAVOK
Forecast period: 0000 UTC 21 September 2019 to 0600 UTC 22 September 2019
Forecast type: FROM: standard forecast or significant change
Winds: from the ESE (110 degrees) at 9 MPH (8 knots; 4.1 m/s)
Visibility: 6 or more miles 10+ km)
Ceiling: unknown
Clouds: missing
Weather: NSW  (no significant weather)